This is the latest recevied weather packets stored in our database for station/object SV2BZQ-2. If no packets are shown the sender has not sent any weather packets the latest 10 day(s).
| Time | Temp. | Humidity | Pressure | Rain* | Wind** | Luminosity | Snow |
|---|---|---|---|---|---|---|---|
| 1777763706 | 10° C | 80% | 1016.8 hPa | 0 mm | - | 0 W/m² | - |
| 1777763501 | 10° C | 81% | 1016.8 hPa | 0 mm | - | 0 W/m² | - |
| 1777761630 | 10° C | 81% | 1017.4 hPa | 0 mm | - | 0 W/m² | - |
| 1777757621 | 10.56° C | 81% | 1017.4 hPa | 0 mm | - | 0 W/m² | - |
| 1777754938 | 10.56° C | 80% | 1017.6 hPa | 0 mm | - | 0 W/m² | - |
| 1777753879 | 11.11° C | 79% | 1017.7 hPa | 0 mm | - | 0 W/m² | - |
| 1777752569 | 11.11° C | 79% | 1017.8 hPa | 0 mm | - | 0 W/m² | - |
| 1777752323 | 11.11° C | 79% | 1017.8 hPa | 0 mm | - | 0 W/m² | - |
| 1777751701 | 11.11° C | 78% | 1017.9 hPa | 0 mm | - | 0 W/m² | - |
| 1777750433 | 11.67° C | 77% | 1018 hPa | 0 mm | - | 0 W/m² | - |
| 1777750226 | 11.67° C | 77% | 1018 hPa | 0 mm | - | 0 W/m² | - |
| 1777747406 | 12.22° C | 71% | 1017.8 hPa | 0 mm | - | 0 W/m² | - |
| 1777747272 | 15° C | 63% | 1016.9 hPa | 0 mm | - | 7 W/m² | - |
| 1777746626 | 15.56° C | 60% | 1016.7 hPa | 0 mm | - | 137 W/m² | - |
| 1777744941 | 13.33° C | 68% | 1017 hPa | 0 mm | - | 0 W/m² | - |
| 1777744637 | 13.33° C | 67% | 1016.9 hPa | 0 mm | - | 0 W/m² | - |
| 1777743492 | 14.44° C | 66% | 1016.9 hPa | 0 mm | - | 0 W/m² | - |
| 1777742044 | 17.22° C | 50% | 1016.9 hPa | 0 mm | - | 209 W/m² | - |
| 1777740850 | 15.56° C | 61% | 1017 hPa | 0 mm | - | 76 W/m² | - |
| 1777740182 | 15.56° C | 61% | 1016.8 hPa | 0 mm | - | 113 W/m² | - |
| 1777736214 | 15.56° C | 55% | 1016.3 hPa | 0 mm | - | 135 W/m² | - |
| 1777735891 | 16.11° C | 56% | 1016.3 hPa | 0 mm | - | 109 W/m² | - |
| 1777734746 | 16.11° C | 55% | 1016.6 hPa | 0 mm | - | 221 W/m² | - |
| 1777734502 | 16.11° C | 54% | 1016.3 hPa | 0 mm | - | 410 W/m² | - |
| 1777733915 | 16.11° C | 54% | 1016.7 hPa | 0 mm | - | 483 W/m² | - |
* Rain latest hour (hover to see other rain measurements)
** Current wind speed in m/s (hover to see current wind gust speed)